sensor_id;sensor_type;location;lat;lon;timestamp;temperature;humidity
11152;DHT22;5630;49.342;10.802;2024-03-23T00:51:39;10.30;99.90
11152;DHT22;5630;49.342;10.802;2024-03-23T00:54:04;10.30;99.90
11152;DHT22;5630;49.342;10.802;2024-03-23T00:56:30;10.30;99.90
11152;DHT22;5630;49.342;10.802;2024-03-23T00:58:55;10.30;99.90
11152;DHT22;5630;49.342;10.802;2024-03-23T01:01:21;10.20;99.90
11152;DHT22;5630;49.342;10.802;2024-03-23T01:03:46;10.30;99.90
11152;DHT22;5630;49.342;10.802;2024-03-23T01:06:12;10.20;99.90
11152;DHT22;5630;49.342;10.802;2024-03-23T01:08:38;10.20;99.90
11152;DHT22;5630;49.342;10.802;2024-03-23T01:11:03;10.20;99.90
11152;DHT22;5630;49.342;10.802;2024-03-23T01:13:30;10.10;99.90
11152;DHT22;5630;49.342;10.802;2024-03-23T01:15:56;10.10;99.90
11152;DHT22;5630;49.342;10.802;2024-03-23T01:18:23;10.10;99.90
11152;DHT22;5630;49.342;10.802;2024-03-23T01:20:48;10.00;99.90
11152;DHT22;5630;49.342;10.802;2024-03-23T01:23:14;10.10;99.90
11152;DHT22;5630;49.342;10.802;2024-03-23T01:25:40;10.00;99.90
11152;DHT22;5630;49.342;10.802;2024-03-23T01:28:07;10.00;99.90
11152;DHT22;5630;49.342;10.802;2024-03-23T01:30:36;10.00;99.90
11152;DHT22;5630;49.342;10.802;2024-03-23T01:33:02;10.00;99.90
11152;DHT22;5630;49.342;10.802;2024-03-23T01:35:30;10.00;99.90
11152;DHT22;5630;49.342;10.802;2024-03-23T01:37:56;9.90;99.90
11152;DHT22;5630;49.342;10.802;2024-03-23T01:40:21;10.00;99.90
11152;DHT22;5630;49.342;10.802;2024-03-23T01:42:57;10.00;99.90
11152;DHT22;5630;49.342;10.802;2024-03-23T01:45:22;10.00;99.90
11152;DHT22;5630;49.342;10.802;2024-03-23T01:47:49;10.00;99.90
11152;DHT22;5630;49.342;10.802;2024-03-23T01:50:16;10.00;99.90
11152;DHT22;5630;49.342;10.802;2024-03-23T01:52:42;10.00;99.90
11152;DHT22;5630;49.342;10.802;2024-03-23T01:55:08;10.00;99.90
11152;DHT22;5630;49.342;10.802;2024-03-23T01:57:33;10.00;99.90
11152;DHT22;5630;49.342;10.802;2024-03-23T01:59:59;9.90;99.90
11152;DHT22;5630;49.342;10.802;2024-03-23T02:02:24;10.00;99.90
11152;DHT22;5630;49.342;10.802;2024-03-23T02:04:50;10.00;99.90
11152;DHT22;5630;49.342;10.802;2024-03-23T02:07:16;10.00;99.90
11152;DHT22;5630;49.342;10.802;2024-03-23T02:09:42;10.00;99.90
11152;DHT22;5630;49.342;10.802;2024-03-23T02:12:08;10.00;99.90
11152;DHT22;5630;49.342;10.802;2024-03-23T02:14:34;10.00;99.90
11152;DHT22;5630;49.342;10.802;2024-03-23T02:16:59;10.00;99.90
11152;DHT22;5630;49.342;10.802;2024-03-23T02:19:25;10.00;99.90
11152;DHT22;5630;49.342;10.802;2024-03-23T02:21:50;10.00;99.90
11152;DHT22;5630;49.342;10.802;2024-03-23T02:24:16;10.00;99.90
11152;DHT22;5630;49.342;10.802;2024-03-23T02:26:41;10.00;99.90
11152;DHT22;5630;49.342;10.802;2024-03-23T02:29:07;10.10;99.90
11152;DHT22;5630;49.342;10.802;2024-03-23T02:31:34;10.10;99.90
11152;DHT22;5630;49.342;10.802;2024-03-23T02:34:00;10.10;99.90
11152;DHT22;5630;49.342;10.802;2024-03-23T02:36:25;10.10;99.90
11152;DHT22;5630;49.342;10.802;2024-03-23T02:38:52;10.10;99.90
11152;DHT22;5630;49.342;10.802;2024-03-23T02:41:17;10.20;99.90
11152;DHT22;5630;49.342;10.802;2024-03-23T02:43:49;10.20;99.90
11152;DHT22;5630;49.342;10.802;2024-03-23T02:46:15;10.20;99.90
11152;DHT22;5630;49.342;10.802;2024-03-23T02:48:40;10.20;99.90
11152;DHT22;5630;49.342;10.802;2024-03-23T02:51:06;10.20;99.90
11152;DHT22;5630;49.342;10.802;2024-03-23T02:53:31;10.30;99.90
11152;DHT22;5630;49.342;10.802;2024-03-23T02:56:00;10.20;99.90
11152;DHT22;5630;49.342;10.802;2024-03-23T02:58:26;10.30;99.90
11152;DHT22;5630;49.342;10.802;2024-03-23T03:00:51;10.30;99.90
11152;DHT22;5630;49.342;10.802;2024-03-23T03:03:17;10.30;99.90
11152;DHT22;5630;49.342;10.802;2024-03-23T03:05:42;10.30;99.90
11152;DHT22;5630;49.342;10.802;2024-03-23T03:08:08;10.30;99.90
11152;DHT22;5630;49.342;10.802;2024-03-23T03:10:34;10.30;99.90
11152;DHT22;5630;49.342;10.802;2024-03-23T03:13:01;10.30;99.90
11152;DHT22;5630;49.342;10.802;2024-03-23T03:15:27;10.30;99.90
11152;DHT22;5630;49.342;10.802;2024-03-23T03:17:53;10.30;99.90
11152;DHT22;5630;49.342;10.802;2024-03-23T03:20:18;10.30;99.90
11152;DHT22;5630;49.342;10.802;2024-03-23T03:22:44;10.30;99.90
11152;DHT22;5630;49.342;10.802;2024-03-23T03:25:09;10.30;99.90
11152;DHT22;5630;49.342;10.802;2024-03-23T03:27:35;10.30;99.90
11152;DHT22;5630;49.342;10.802;2024-03-23T03:30:01;10.20;99.90
11152;DHT22;5630;49.342;10.802;2024-03-23T03:32:30;10.20;99.90
11152;DHT22;5630;49.342;10.802;2024-03-23T03:34:55;10.20;99.90
11152;DHT22;5630;49.342;10.802;2024-03-23T03:37:21;10.20;99.90
11152;DHT22;5630;49.342;10.802;2024-03-23T03:39:47;10.20;99.90
11152;DHT22;5630;49.342;10.802;2024-03-23T03:42:12;10.20;99.90
11152;DHT22;5630;49.342;10.802;2024-03-23T03:44:38;10.20;99.90
11152;DHT22;5630;49.342;10.802;2024-03-23T03:47:05;10.20;99.90
11152;DHT22;5630;49.342;10.802;2024-03-23T03:49:31;10.20;99.90
11152;DHT22;5630;49.342;10.802;2024-03-23T03:51:56;10.10;99.90
11152;DHT22;5630;49.342;10.802;2024-03-23T03:54:22;10.20;99.90
11152;DHT22;5630;49.342;10.802;2024-03-23T03:56:47;10.20;99.90
11152;DHT22;5630;49.342;10.802;2024-03-23T03:59:13;10.10;99.90
11152;DHT22;5630;49.342;10.802;2024-03-23T04:01:39;10.10;99.90
11152;DHT22;5630;49.342;10.802;2024-03-23T04:04:05;10.10;99.90
11152;DHT22;5630;49.342;10.802;2024-03-23T04:06:31;10.10;99.90
11152;DHT22;5630;49.342;10.802;2024-03-23T04:08:58;10.00;99.90
11152;DHT22;5630;49.342;10.802;2024-03-23T04:11:24;10.00;99.90
11152;DHT22;5630;49.342;10.802;2024-03-23T04:13:49;10.10;99.90
11152;DHT22;5630;49.342;10.802;2024-03-23T04:16:26;10.00;99.90
11152;DHT22;5630;49.342;10.802;2024-03-23T04:18:51;10.00;99.90
11152;DHT22;5630;49.342;10.802;2024-03-23T04:21:17;10.00;99.90
11152;DHT22;5630;49.342;10.802;2024-03-23T04:23:42;10.00;99.90
11152;DHT22;5630;49.342;10.802;2024-03-23T04:26:08;9.90;99.90
11152;DHT22;5630;49.342;10.802;2024-03-23T04:28:34;10.00;99.90
11152;DHT22;5630;49.342;10.802;2024-03-23T04:31:03;9.90;99.90
11152;DHT22;5630;49.342;10.802;2024-03-23T04:33:29;10.00;99.90
11152;DHT22;5630;49.342;10.802;2024-03-23T04:35:54;9.90;99.90
11152;DHT22;5630;49.342;10.802;2024-03-23T04:38:20;9.90;99.90
11152;DHT22;5630;49.342;10.802;2024-03-23T04:40:57;9.90;99.90
11152;DHT22;5630;49.342;10.802;2024-03-23T04:43:23;9.90;99.90
11152;DHT22;5630;49.342;10.802;2024-03-23T04:45:48;9.90;99.90
11152;DHT22;5630;49.342;10.802;2024-03-23T04:48:14;9.80;99.90
11152;DHT22;5630;49.342;10.802;2024-03-23T04:50:39;9.80;99.90
11152;DHT22;5630;49.342;10.802;2024-03-23T04:53:06;9.80;99.90
11152;DHT22;5630;49.342;10.802;2024-03-23T04:55:32;9.70;99.90
11152;DHT22;5630;49.342;10.802;2024-03-23T04:57:57;9.80;99.90
11152;DHT22;5630;49.342;10.802;2024-03-23T05:00:23;9.80;99.90
11152;DHT22;5630;49.342;10.802;2024-03-23T05:02:49;9.70;99.90
11152;DHT22;5630;49.342;10.802;2024-03-23T05:05:14;9.70;99.90
11152;DHT22;5630;49.342;10.802;2024-03-23T05:07:40;9.70;99.90
11152;DHT22;5630;49.342;10.802;2024-03-23T05:10:09;9.70;99.90
11152;DHT22;5630;49.342;10.802;2024-03-23T05:12:37;9.70;99.90
11152;DHT22;5630;49.342;10.802;2024-03-23T05:15:03;9.70;99.90
11152;DHT22;5630;49.342;10.802;2024-03-23T05:17:28;9.70;99.90
11152;DHT22;5630;49.342;10.802;2024-03-23T05:19:54;9.70;99.90
11152;DHT22;5630;49.342;10.802;2024-03-23T05:22:20;9.70;99.90
11152;DHT22;5630;49.342;10.802;2024-03-23T05:24:45;9.70;99.90
11152;DHT22;5630;49.342;10.802;2024-03-23T05:27:12;9.70;99.90
11152;DHT22;5630;49.342;10.802;2024-03-23T05:29:37;9.70;99.90
11152;DHT22;5630;49.342;10.802;2024-03-23T05:32:03;9.70;99.90
11152;DHT22;5630;49.342;10.802;2024-03-23T05:34:29;9.70;99.90
11152;DHT22;5630;49.342;10.802;2024-03-23T05:36:54;9.80;99.90
11152;DHT22;5630;49.342;10.802;2024-03-23T05:39:20;9.80;99.90
11152;DHT22;5630;49.342;10.802;2024-03-23T05:41:48;9.90;99.90
11152;DHT22;5630;49.342;10.802;2024-03-23T05:44:13;9.90;99.90
11152;DHT22;5630;49.342;10.802;2024-03-23T05:46:40;10.00;99.90
11152;DHT22;5630;49.342;10.802;2024-03-23T05:49:06;9.90;99.90
11152;DHT22;5630;49.342;10.802;2024-03-23T05:51:32;9.90;99.90
11152;DHT22;5630;49.342;10.802;2024-03-23T05:53:57;9.90;99.90
11152;DHT22;5630;49.342;10.802;2024-03-23T05:56:23;10.00;99.90
11152;DHT22;5630;49.342;10.802;2024-03-23T05:58:49;9.90;99.90
11152;DHT22;5630;49.342;10.802;2024-03-23T06:01:14;9.90;99.90
11152;DHT22;5630;49.342;10.802;2024-03-23T06:03:40;10.00;99.90
11152;DHT22;5630;49.342;10.802;2024-03-23T06:06:05;10.10;99.90
11152;DHT22;5630;49.342;10.802;2024-03-23T06:08:37;10.10;99.90
11152;DHT22;5630;49.342;10.802;2024-03-23T06:11:03;10.10;99.90
11152;DHT22;5630;49.342;10.802;2024-03-23T06:13:29;10.10;99.90
11152;DHT22;5630;49.342;10.802;2024-03-23T06:15:56;10.00;99.90
11152;DHT22;5630;49.342;10.802;2024-03-23T06:18:21;10.00;99.90
11152;DHT22;5630;49.342;10.802;2024-03-23T06:20:47;9.90;99.90
11152;DHT22;5630;49.342;10.802;2024-03-23T06:23:12;9.90;99.90
11152;DHT22;5630;49.342;10.802;2024-03-23T06:25:38;9.90;99.90
11152;DHT22;5630;49.342;10.802;2024-03-23T06:28:04;9.90;99.90
11152;DHT22;5630;49.342;10.802;2024-03-23T06:30:30;10.00;99.90
11152;DHT22;5630;49.342;10.802;2024-03-23T06:32:57;9.90;99.90
11152;DHT22;5630;49.342;10.802;2024-03-23T06:35:23;10.00;99.90
11152;DHT22;5630;49.342;10.802;2024-03-23T06:37:48;10.00;99.90
11152;DHT22;5630;49.342;10.802;2024-03-23T06:40:14;10.00;99.90
11152;DHT22;5630;49.342;10.802;2024-03-23T06:42:39;9.90;99.90
11152;DHT22;5630;49.342;10.802;2024-03-23T06:45:06;9.90;99.90
11152;DHT22;5630;49.342;10.802;2024-03-23T06:47:31;10.00;99.90
11152;DHT22;5630;49.342;10.802;2024-03-23T06:49:59;9.90;99.90
11152;DHT22;5630;49.342;10.802;2024-03-23T06:52:27;9.90;99.90
11152;DHT22;5630;49.342;10.802;2024-03-23T06:54:53;10.20;99.90
11152;DHT22;5630;49.342;10.802;2024-03-23T06:57:18;10.20;99.90
11152;DHT22;5630;49.342;10.802;2024-03-23T06:59:44;10.30;99.90
11152;DHT22;5630;49.342;10.802;2024-03-23T07:02:09;10.30;99.90
11152;DHT22;5630;49.342;10.802;2024-03-23T07:04:36;10.30;99.90
11152;DHT22;5630;49.342;10.802;2024-03-23T07:07:02;10.10;99.90
11152;DHT22;5630;49.342;10.802;2024-03-23T07:09:30;10.00;99.90
11152;DHT22;5630;49.342;10.802;2024-03-23T07:11:59;10.10;99.90
11152;DHT22;5630;49.342;10.802;2024-03-23T07:14:25;10.00;99.90
11152;DHT22;5630;49.342;10.802;2024-03-23T07:16:51;10.00;99.90
11152;DHT22;5630;49.342;10.802;2024-03-23T07:19:17;10.00;99.90
11152;DHT22;5630;49.342;10.802;2024-03-23T07:21:43;10.00;99.90
11152;DHT22;5630;49.342;10.802;2024-03-23T07:24:09;10.00;99.90
11152;DHT22;5630;49.342;10.802;2024-03-23T07:26:35;9.90;99.90
11152;DHT22;5630;49.342;10.802;2024-03-23T07:29:01;9.80;99.90
11152;DHT22;5630;49.342;10.802;2024-03-23T07:31:27;9.80;99.90
11152;DHT22;5630;49.342;10.802;2024-03-23T07:33:52;9.80;99.90
11152;DHT22;5630;49.342;10.802;2024-03-23T07:36:18;9.80;99.90
11152;DHT22;5630;49.342;10.802;2024-03-23T07:38:44;9.80;99.90
11152;DHT22;5630;49.342;10.802;2024-03-23T07:41:15;9.90;99.90
11152;DHT22;5630;49.342;10.802;2024-03-23T07:43:45;9.90;99.90
11152;DHT22;5630;49.342;10.802;2024-03-23T07:46:11;9.80;99.90
11152;DHT22;5630;49.342;10.802;2024-03-23T07:48:37;9.90;99.90
11152;DHT22;5630;49.342;10.802;2024-03-23T07:51:04;10.00;99.90
11152;DHT22;5630;49.342;10.802;2024-03-23T07:53:30;10.00;99.90
11152;DHT22;5630;49.342;10.802;2024-03-23T07:56:09;10.00;99.90
11152;DHT22;5630;49.342;10.802;2024-03-23T07:58:38;10.00;99.90
11152;DHT22;5630;49.342;10.802;2024-03-23T08:01:05;10.00;99.90
11152;DHT22;5630;49.342;10.802;2024-03-23T08:03:38;10.20;99.90
11152;DHT22;5630;49.342;10.802;2024-03-23T08:06:22;10.40;99.90
11152;DHT22;5630;49.342;10.802;2024-03-23T08:08:51;10.50;99.90
11152;DHT22;5630;49.342;10.802;2024-03-23T08:11:25;10.40;99.90
11152;DHT22;5630;49.342;10.802;2024-03-23T08:13:51;10.40;99.90
11152;DHT22;5630;49.342;10.802;2024-03-23T08:16:16;10.20;99.90
11152;DHT22;5630;49.342;10.802;2024-03-23T08:18:42;10.00;99.90
11152;DHT22;5630;49.342;10.802;2024-03-23T08:21:07;9.50;99.90
11152;DHT22;5630;49.342;10.802;2024-03-23T08:23:34;8.60;99.90
11152;DHT22;5630;49.342;10.802;2024-03-23T08:26:09;8.50;99.90
11152;DHT22;5630;49.342;10.802;2024-03-23T08:28:35;8.40;99.90
11152;DHT22;5630;49.342;10.802;2024-03-23T08:31:03;8.40;99.90
11152;DHT22;5630;49.342;10.802;2024-03-23T08:33:30;8.40;99.90
11152;DHT22;5630;49.342;10.802;2024-03-23T08:36:04;8.40;99.90
11152;DHT22;5630;49.342;10.802;2024-03-23T08:38:30;8.50;99.90
11152;DHT22;5630;49.342;10.802;2024-03-23T08:41:05;8.60;99.90
11152;DHT22;5630;49.342;10.802;2024-03-23T08:43:41;8.60;99.90
11152;DHT22;5630;49.342;10.802;2024-03-23T08:48:43;8.30;99.90
11152;DHT22;5630;49.342;10.802;2024-03-23T08:51:10;8.20;99.90
11152;DHT22;5630;49.342;10.802;2024-03-23T08:53:36;8.10;99.90
11152;DHT22;5630;49.342;10.802;2024-03-23T08:56:02;7.90;99.90
11152;DHT22;5630;49.342;10.802;2024-03-23T08:58:29;7.80;99.90
11152;DHT22;5630;49.342;10.802;2024-03-23T09:00:57;7.70;99.90
11152;DHT22;5630;49.342;10.802;2024-03-23T09:03:26;7.70;99.90
11152;DHT22;5630;49.342;10.802;2024-03-23T09:05:52;7.70;99.90
11152;DHT22;5630;49.342;10.802;2024-03-23T09:08:18;7.60;99.90
11152;DHT22;5630;49.342;10.802;2024-03-23T09:10:44;7.70;99.90
11152;DHT22;5630;49.342;10.802;2024-03-23T09:13:10;7.70;99.90
11152;DHT22;5630;49.342;10.802;2024-03-23T09:15:37;7.70;99.90
11152;DHT22;5630;49.342;10.802;2024-03-23T09:18:03;7.80;99.90
11152;DHT22;5630;49.342;10.802;2024-03-23T09:20:32;7.90;99.90
11152;DHT22;5630;49.342;10.802;2024-03-23T09:22:57;8.00;99.90
11152;DHT22;5630;49.342;10.802;2024-03-23T09:25:23;8.40;99.90
11152;DHT22;5630;49.342;10.802;2024-03-23T09:27:49;8.40;99.90
11152;DHT22;5630;49.342;10.802;2024-03-23T09:30:15;8.40;99.90
11152;DHT22;5630;49.342;10.802;2024-03-23T09:32:44;8.40;99.90
11152;DHT22;5630;49.342;10.802;2024-03-23T09:35:10;8.20;99.90
11152;DHT22;5630;49.342;10.802;2024-03-23T09:37:36;8.00;99.90
11152;DHT22;5630;49.342;10.802;2024-03-23T09:40:02;7.80;99.90
11152;DHT22;5630;49.342;10.802;2024-03-23T09:42:28;7.80;99.90
11152;DHT22;5630;49.342;10.802;2024-03-23T09:44:54;7.50;99.90
11152;DHT22;5630;49.342;10.802;2024-03-23T09:47:22;7.40;99.90
11152;DHT22;5630;49.342;10.802;2024-03-23T09:49:47;7.30;99.90
11152;DHT22;5630;49.342;10.802;2024-03-23T09:52:13;7.80;99.90
11152;DHT22;5630;49.342;10.802;2024-03-23T09:54:39;8.10;99.90
11152;DHT22;5630;49.342;10.802;2024-03-23T09:57:05;8.80;99.90
11152;DHT22;5630;49.342;10.802;2024-03-23T09:59:33;8.90;99.90
11152;DHT22;5630;49.342;10.802;2024-03-23T10:01:59;9.20;99.90
11152;DHT22;5630;49.342;10.802;2024-03-23T10:04:41;9.10;99.90
11152;DHT22;5630;49.342;10.802;2024-03-23T10:07:20;8.80;99.90
11152;DHT22;5630;49.342;10.802;2024-03-23T10:09:46;8.50;99.90
11152;DHT22;5630;49.342;10.802;2024-03-23T10:12:19;8.40;99.90
11152;DHT22;5630;49.342;10.802;2024-03-23T10:14:45;8.30;99.90
11152;DHT22;5630;49.342;10.802;2024-03-23T10:17:22;8.70;99.90
11152;DHT22;5630;49.342;10.802;2024-03-23T10:19:51;9.20;99.90
11152;DHT22;5630;49.342;10.802;2024-03-23T10:22:19;9.10;99.90
11152;DHT22;5630;49.342;10.802;2024-03-23T10:24:46;9.00;99.90
11152;DHT22;5630;49.342;10.802;2024-03-23T10:27:20;8.90;99.90
11152;DHT22;5630;49.342;10.802;2024-03-23T10:29:49;8.60;99.90
11152;DHT22;5630;49.342;10.802;2024-03-23T10:32:18;8.40;99.90
11152;DHT22;5630;49.342;10.802;2024-03-23T10:34:45;8.40;99.90
11152;DHT22;5630;49.342;10.802;2024-03-23T10:37:11;9.00;99.90
11152;DHT22;5630;49.342;10.802;2024-03-23T10:39:40;9.10;99.90
11152;DHT22;5630;49.342;10.802;2024-03-23T10:42:07;9.20;99.90
11152;DHT22;5630;49.342;10.802;2024-03-23T10:44:33;9.90;99.90
11152;DHT22;5630;49.342;10.802;2024-03-23T10:47:00;10.50;99.90
11152;DHT22;5630;49.342;10.802;2024-03-23T10:49:30;10.60;99.90
11152;DHT22;5630;49.342;10.802;2024-03-23T10:52:02;10.40;99.90
11152;DHT22;5630;49.342;10.802;2024-03-23T10:54:30;10.30;99.90
11152;DHT22;5630;49.342;10.802;2024-03-23T10:57:15;10.20;99.90
11152;DHT22;5630;49.342;10.802;2024-03-23T10:59:42;10.30;99.90
11152;DHT22;5630;49.342;10.802;2024-03-23T11:02:21;10.30;99.90
11152;DHT22;5630;49.342;10.802;2024-03-23T11:04:47;10.20;99.90
11152;DHT22;5630;49.342;10.802;2024-03-23T11:07:32;9.90;99.90
11152;DHT22;5630;49.342;10.802;2024-03-23T11:09:59;9.80;99.90
11152;DHT22;5630;49.342;10.802;2024-03-23T11:12:26;10.20;99.90
11152;DHT22;5630;49.342;10.802;2024-03-23T11:15:15;10.60;99.90
11152;DHT22;5630;49.342;10.802;2024-03-23T11:17:41;10.80;99.90
11152;DHT22;5630;49.342;10.802;2024-03-23T11:20:07;11.00;99.90
11152;DHT22;5630;49.342;10.802;2024-03-23T11:25:26;11.20;99.90
11152;DHT22;5630;49.342;10.802;2024-03-23T11:27:58;11.60;99.90
11152;DHT22;5630;49.342;10.802;2024-03-23T11:30:24;11.90;99.90
11152;DHT22;5630;49.342;10.802;2024-03-23T11:32:51;11.50;99.90
11152;DHT22;5630;49.342;10.802;2024-03-23T11:35:28;11.60;99.90
11152;DHT22;5630;49.342;10.802;2024-03-23T11:40:40;10.60;99.90
11152;DHT22;5630;49.342;10.802;2024-03-23T11:43:12;10.20;99.90
11152;DHT22;5630;49.342;10.802;2024-03-23T11:45:40;9.70;99.90
11152;DHT22;5630;49.342;10.802;2024-03-23T11:48:08;9.90;99.90
11152;DHT22;5630;49.342;10.802;2024-03-23T11:50:39;10.20;99.90
11152;DHT22;5630;49.342;10.802;2024-03-23T11:53:12;10.60;99.90
11152;DHT22;5630;49.342;10.802;2024-03-23T11:55:48;11.00;99.90
11152;DHT22;5630;49.342;10.802;2024-03-23T11:58:15;11.00;99.90
11152;DHT22;5630;49.342;10.802;2024-03-23T12:00:41;10.80;99.90
11152;DHT22;5630;49.342;10.802;2024-03-23T12:03:07;11.20;99.90
11152;DHT22;5630;49.342;10.802;2024-03-23T12:05:33;11.30;99.90
11152;DHT22;5630;49.342;10.802;2024-03-23T12:08:18;11.30;99.90
11152;DHT22;5630;49.342;10.802;2024-03-23T12:10:46;11.50;99.90
11152;DHT22;5630;49.342;10.802;2024-03-23T12:13:15;11.40;99.90
11152;DHT22;5630;49.342;10.802;2024-03-23T12:15:40;11.20;99.90
11152;DHT22;5630;49.342;10.802;2024-03-23T12:18:09;11.70;99.90
11152;DHT22;5630;49.342;10.802;2024-03-23T12:20:36;12.20;99.90
11152;DHT22;5630;49.342;10.802;2024-03-23T12:23:12;12.30;99.90
11152;DHT22;5630;49.342;10.802;2024-03-23T12:25:39;11.70;99.90
11152;DHT22;5630;49.342;10.802;2024-03-23T12:28:05;11.40;99.90
11152;DHT22;5630;49.342;10.802;2024-03-23T12:30:35;11.30;99.90
11152;DHT22;5630;49.342;10.802;2024-03-23T12:33:01;11.00;99.90
11152;DHT22;5630;49.342;10.802;2024-03-23T12:35:27;11.00;99.90
11152;DHT22;5630;49.342;10.802;2024-03-23T12:37:52;11.00;99.90
11152;DHT22;5630;49.342;10.802;2024-03-23T12:40:18;11.00;99.90
11152;DHT22;5630;49.342;10.802;2024-03-23T12:42:43;10.90;99.90
11152;DHT22;5630;49.342;10.802;2024-03-23T12:45:09;11.40;99.90
11152;DHT22;5630;49.342;10.802;2024-03-23T12:47:34;11.50;99.90
11152;DHT22;5630;49.342;10.802;2024-03-23T12:50:00;11.70;99.90
11152;DHT22;5630;49.342;10.802;2024-03-23T12:52:26;11.90;99.90
11152;DHT22;5630;49.342;10.802;2024-03-23T12:54:55;12.20;99.90
11152;DHT22;5630;49.342;10.802;2024-03-23T12:57:25;12.70;99.90
11152;DHT22;5630;49.342;10.802;2024-03-23T12:59:52;12.60;99.90
11152;DHT22;5630;49.342;10.802;2024-03-23T13:02:21;12.80;99.90
11152;DHT22;5630;49.342;10.802;2024-03-23T13:07:13;13.20;99.90
11152;DHT22;5630;49.342;10.802;2024-03-23T13:09:38;13.40;99.90
11152;DHT22;5630;49.342;10.802;2024-03-23T13:12:04;13.10;99.90
11152;DHT22;5630;49.342;10.802;2024-03-23T13:14:30;12.50;99.90
11152;DHT22;5630;49.342;10.802;2024-03-23T13:16:55;12.10;99.90
11152;DHT22;5630;49.342;10.802;2024-03-23T13:19:21;11.60;99.90
11152;DHT22;5630;49.342;10.802;2024-03-23T13:21:55;11.70;99.90
11152;DHT22;5630;49.342;10.802;2024-03-23T13:24:24;11.70;99.90
11152;DHT22;5630;49.342;10.802;2024-03-23T13:26:51;12.10;99.90
11152;DHT22;5630;49.342;10.802;2024-03-23T13:29:17;12.30;99.90
11152;DHT22;5630;49.342;10.802;2024-03-23T13:31:42;12.60;99.90
11152;DHT22;5630;49.342;10.802;2024-03-23T13:34:08;12.90;99.90
11152;DHT22;5630;49.342;10.802;2024-03-23T13:36:34;13.00;99.90
11152;DHT22;5630;49.342;10.802;2024-03-23T13:39:01;13.10;99.30
11152;DHT22;5630;49.342;10.802;2024-03-23T13:41:28;13.10;98.40
11152;DHT22;5630;49.342;10.802;2024-03-23T13:43:53;13.00;98.10
11152;DHT22;5630;49.342;10.802;2024-03-23T13:46:19;13.20;98.80
11152;DHT22;5630;49.342;10.802;2024-03-23T13:48:44;13.20;98.30
11152;DHT22;5630;49.342;10.802;2024-03-23T13:51:10;13.10;98.70
11152;DHT22;5630;49.342;10.802;2024-03-23T13:53:35;13.20;99.00
11152;DHT22;5630;49.342;10.802;2024-03-23T13:56:01;13.00;99.00
11152;DHT22;5630;49.342;10.802;2024-03-23T13:58:26;12.90;99.00
11152;DHT22;5630;49.342;10.802;2024-03-23T14:00:52;12.90;99.80
11152;DHT22;5630;49.342;10.802;2024-03-23T14:03:18;12.70;98.60
11152;DHT22;5630;49.342;10.802;2024-03-23T14:05:45;12.80;98.60
11152;DHT22;5630;49.342;10.802;2024-03-23T14:08:12;12.90;98.70
11152;DHT22;5630;49.342;10.802;2024-03-23T14:10:41;12.90;98.50
11152;DHT22;5630;49.342;10.802;2024-03-23T14:13:07;12.90;99.30
11152;DHT22;5630;49.342;10.802;2024-03-23T14:15:33;13.10;99.40
11152;DHT22;5630;49.342;10.802;2024-03-23T14:17:58;13.20;98.80
11152;DHT22;5630;49.342;10.802;2024-03-23T14:20:24;13.00;98.60
11152;DHT22;5630;49.342;10.802;2024-03-23T14:22:51;13.00;98.70
11152;DHT22;5630;49.342;10.802;2024-03-23T14:25:17;13.10;98.60
11152;DHT22;5630;49.342;10.802;2024-03-23T14:27:46;13.00;98.70
11152;DHT22;5630;49.342;10.802;2024-03-23T14:30:12;12.90;99.20
11152;DHT22;5630;49.342;10.802;2024-03-23T14:32:38;12.80;99.40
11152;DHT22;5630;49.342;10.802;2024-03-23T14:35:04;12.40;99.50
11152;DHT22;5630;49.342;10.802;2024-03-23T14:37:31;12.40;99.80
11152;DHT22;5630;49.342;10.802;2024-03-23T14:39:57;12.20;99.90
11152;DHT22;5630;49.342;10.802;2024-03-23T14:42:23;12.00;99.90
11152;DHT22;5630;49.342;10.802;2024-03-23T14:44:52;11.70;99.90
11152;DHT22;5630;49.342;10.802;2024-03-23T14:49:45;11.50;99.90
11152;DHT22;5630;49.342;10.802;2024-03-23T14:52:16;11.20;99.90
11152;DHT22;5630;49.342;10.802;2024-03-23T14:54:42;11.00;99.90
11152;DHT22;5630;49.342;10.802;2024-03-23T14:57:07;9.80;99.90
11152;DHT22;5630;49.342;10.802;2024-03-23T14:59:34;8.40;99.90
11152;DHT22;5630;49.342;10.802;2024-03-23T15:04:26;8.00;99.90
11152;DHT22;5630;49.342;10.802;2024-03-23T15:06:52;7.80;99.90
11152;DHT22;5630;49.342;10.802;2024-03-23T15:09:17;7.80;99.90
11152;DHT22;5630;49.342;10.802;2024-03-23T15:11:43;7.90;99.90
11152;DHT22;5630;49.342;10.802;2024-03-23T15:14:09;7.80;99.90
11152;DHT22;5630;49.342;10.802;2024-03-23T15:16:36;7.90;99.90
11152;DHT22;5630;49.342;10.802;2024-03-23T15:19:02;7.80;99.90
11152;DHT22;5630;49.342;10.802;2024-03-23T15:21:28;7.90;99.90
11152;DHT22;5630;49.342;10.802;2024-03-23T15:23:53;8.10;99.90
11152;DHT22;5630;49.342;10.802;2024-03-23T15:26:19;8.20;99.90
11152;DHT22;5630;49.342;10.802;2024-03-23T15:28:48;8.30;99.90
11152;DHT22;5630;49.342;10.802;2024-03-23T15:31:23;8.20;99.90
11152;DHT22;5630;49.342;10.802;2024-03-23T15:33:48;8.30;99.90
11152;DHT22;5630;49.342;10.802;2024-03-23T15:36:14;8.40;99.90
11152;DHT22;5630;49.342;10.802;2024-03-23T15:38:40;8.30;99.90
11152;DHT22;5630;49.342;10.802;2024-03-23T15:41:05;8.40;99.90
11152;DHT22;5630;49.342;10.802;2024-03-23T15:43:31;8.30;99.90
11152;DHT22;5630;49.342;10.802;2024-03-23T15:45:57;8.30;99.90
11152;DHT22;5630;49.342;10.802;2024-03-23T15:48:25;8.30;99.90
11152;DHT22;5630;49.342;10.802;2024-03-23T15:51:00;8.30;99.90
11152;DHT22;5630;49.342;10.802;2024-03-23T15:53:26;8.20;99.90
11152;DHT22;5630;49.342;10.802;2024-03-23T15:55:56;8.30;99.90
11152;DHT22;5630;49.342;10.802;2024-03-23T15:58:25;8.20;99.90
11152;DHT22;5630;49.342;10.802;2024-03-23T16:03:21;8.00;99.90
11152;DHT22;5630;49.342;10.802;2024-03-23T16:05:57;7.90;99.90
11152;DHT22;5630;49.342;10.802;2024-03-23T16:08:24;7.80;99.90
11152;DHT22;5630;49.342;10.802;2024-03-23T16:10:50;7.80;99.90
11152;DHT22;5630;49.342;10.802;2024-03-23T16:13:16;7.90;99.90
11152;DHT22;5630;49.342;10.802;2024-03-23T16:15:43;7.70;99.90
11152;DHT22;5630;49.342;10.802;2024-03-23T16:18:09;7.70;99.90
11152;DHT22;5630;49.342;10.802;2024-03-23T16:20:35;7.70;99.90
11152;DHT22;5630;49.342;10.802;2024-03-23T16:23:01;7.70;99.90
11152;DHT22;5630;49.342;10.802;2024-03-23T16:25:27;7.70;99.90
11152;DHT22;5630;49.342;10.802;2024-03-23T16:27:53;7.80;99.90
11152;DHT22;5630;49.342;10.802;2024-03-23T16:30:19;7.80;99.90
11152;DHT22;5630;49.342;10.802;2024-03-23T16:32:46;7.60;99.90
11152;DHT22;5630;49.342;10.802;2024-03-23T16:35:12;7.50;99.90
11152;DHT22;5630;49.342;10.802;2024-03-23T16:37:38;7.70;99.90
11152;DHT22;5630;49.342;10.802;2024-03-23T16:40:04;7.70;99.90
11152;DHT22;5630;49.342;10.802;2024-03-23T16:42:32;7.70;99.90
11152;DHT22;5630;49.342;10.802;2024-03-23T16:44:57;7.70;99.90